createdAt,value
2023-04-14T00:00:12.788Z,1.97
2023-04-14T00:01:12.848Z,2.12
2023-04-14T00:02:12.926Z,2.03
2023-04-14T00:03:13.193Z,2.16
2023-04-14T00:04:13.185Z,2.13
2023-04-14T00:05:13.020Z,2.14
2023-04-14T00:06:13.052Z,2.01
2023-04-14T00:07:13.087Z,1.90
2023-04-14T00:08:13.132Z,1.88
2023-04-14T00:09:13.173Z,1.94
2023-04-14T00:10:13.230Z,1.84
2023-04-14T00:11:13.265Z,1.83
2023-04-14T00:12:13.304Z,1.78
2023-04-14T00:13:13.344Z,1.92
2023-04-14T00:14:13.410Z,2.00
2023-04-14T00:15:13.425Z,1.92
2023-04-14T00:16:13.469Z,1.96
2023-04-14T00:17:13.608Z,1.87
2023-04-14T00:18:13.550Z,1.97
2023-04-14T00:19:13.589Z,1.87
2023-04-14T00:20:13.637Z,1.75
2023-04-14T00:21:13.669Z,1.89
2023-04-14T00:22:13.714Z,1.92
2023-04-14T00:23:13.764Z,1.97
2023-04-14T00:24:13.809Z,2.01
2023-04-14T00:25:13.851Z,2.06
2023-04-14T00:26:13.910Z,1.88
2023-04-14T00:27:13.932Z,1.83
2023-04-14T00:28:13.953Z,1.91
2023-04-14T00:29:14.011Z,1.94
2023-04-14T00:30:14.060Z,1.86
2023-04-14T00:31:14.113Z,1.65
2023-04-14T00:32:14.143Z,1.68
2023-04-14T00:33:14.176Z,1.75
2023-04-14T00:34:14.252Z,1.67
2023-04-14T00:35:14.272Z,1.75
2023-04-14T00:36:14.293Z,1.84
2023-04-14T00:37:14.437Z,1.61
2023-04-14T00:38:14.382Z,1.48
2023-04-14T00:39:14.433Z,1.61
2023-04-14T00:40:14.479Z,1.63
2023-04-14T00:41:14.502Z,1.55
2023-04-14T00:42:14.550Z,1.35
2023-04-14T00:43:14.598Z,1.55
2023-04-14T00:44:14.623Z,1.55
2023-04-14T00:45:14.720Z,1.53
2023-04-14T00:46:14.758Z,1.63
2023-04-14T00:47:14.832Z,1.66
2023-04-14T00:48:14.828Z,1.42
2023-04-14T00:49:14.887Z,1.47
2023-04-14T00:50:14.918Z,1.42
2023-04-14T00:51:14.959Z,1.52
2023-04-14T00:52:15.022Z,1.39
2023-04-14T00:53:15.074Z,1.33
2023-04-14T00:54:15.093Z,1.48
2023-04-14T00:55:15.237Z,1.51
2023-04-14T00:56:15.182Z,1.42
2023-04-14T00:57:15.240Z,1.36
2023-04-14T00:58:15.291Z,1.46
2023-04-14T00:59:15.316Z,1.53
2023-04-14T01:00:15.392Z,1.52
2023-04-14T01:01:15.495Z,1.57
2023-04-14T01:02:15.560Z,1.41
2023-04-14T01:03:15.658Z,1.48
2023-04-14T01:04:15.584Z,1.52
2023-04-14T01:05:15.782Z,1.55
2023-04-14T01:06:15.642Z,1.45
2023-04-14T01:07:15.687Z,1.26
2023-04-14T01:08:15.720Z,1.30
2023-04-14T01:09:15.784Z,1.41
2023-04-14T01:10:15.842Z,1.45
2023-04-14T01:11:15.864Z,1.37
2023-04-14T01:12:15.915Z,1.37
2023-04-14T01:13:15.964Z,1.46
2023-04-14T01:14:16.006Z,1.47
2023-04-14T01:15:16.084Z,1.35
2023-04-14T01:17:16.172Z,1.37
2023-04-14T01:18:16.224Z,1.24
2023-04-14T01:19:16.277Z,1.41
2023-04-14T01:20:16.323Z,1.45
2023-04-14T01:21:16.351Z,1.52
2023-04-14T01:22:16.392Z,1.38
2023-04-14T01:23:16.443Z,1.31
2023-04-14T01:24:16.477Z,1.41
2023-04-14T01:25:16.532Z,1.27
2023-04-14T01:26:16.613Z,1.28
2023-04-14T01:27:16.644Z,1.35
2023-04-14T01:28:16.689Z,1.44
2023-04-14T01:29:16.730Z,1.55
2023-04-14T01:30:16.786Z,1.50
2023-04-14T01:31:16.867Z,1.38
2023-04-14T01:32:16.898Z,1.40
2023-04-14T01:33:16.907Z,1.40
2023-04-14T01:34:17.004Z,1.48
2023-04-14T01:35:17.079Z,1.46
2023-04-14T01:36:17.070Z,1.53
2023-04-14T01:37:17.115Z,1.41
2023-04-14T01:38:17.169Z,1.35
2023-04-14T01:39:17.204Z,1.40
2023-04-14T01:40:17.252Z,1.53
2023-04-14T01:41:17.324Z,1.47
2023-04-14T01:42:17.359Z,1.47
2023-04-14T01:43:17.380Z,1.46
2023-04-14T01:44:17.436Z,1.55
2023-04-14T01:45:17.476Z,1.61
2023-04-14T01:46:17.651Z,1.46
2023-04-14T01:47:17.591Z,1.34
2023-04-14T01:48:17.645Z,1.30
2023-04-14T01:49:17.708Z,1.46
2023-04-14T01:50:17.755Z,1.49
2023-04-14T01:51:17.783Z,1.65
2023-04-14T01:52:17.838Z,1.59
2023-04-14T01:53:17.870Z,1.63
2023-04-14T01:54:17.937Z,1.55
2023-04-14T01:55:17.982Z,1.50
2023-04-14T01:56:18.067Z,1.41
2023-04-14T01:57:18.097Z,1.49
2023-04-14T01:58:18.147Z,1.48
2023-04-14T01:59:18.187Z,1.57
2023-04-14T02:00:18.240Z,1.50
2023-04-14T02:01:18.336Z,1.35
2023-04-14T02:02:18.510Z,1.38
2023-04-14T02:03:18.464Z,1.44
2023-04-14T02:04:18.534Z,1.37
2023-04-14T02:05:18.509Z,1.46
2023-04-14T02:06:18.573Z,1.55
2023-04-14T02:07:18.588Z,1.60
2023-04-14T02:08:18.684Z,1.39
2023-04-14T02:09:18.698Z,1.54
2023-04-14T02:10:18.738Z,1.54
2023-04-14T02:11:18.789Z,1.51
2023-04-14T02:12:18.853Z,1.44
2023-04-14T02:13:18.900Z,1.59
2023-04-14T02:14:18.954Z,1.46
2023-04-14T02:15:18.985Z,1.49
2023-04-14T02:16:19.088Z,1.58
2023-04-14T02:17:19.108Z,1.58
2023-04-14T02:18:19.125Z,1.64
2023-04-14T02:19:19.159Z,1.61
2023-04-14T02:20:19.208Z,1.55
2023-04-14T02:21:19.267Z,1.57
2023-04-14T02:22:19.324Z,1.67
2023-04-14T02:23:19.371Z,1.43
2023-04-14T02:24:19.410Z,1.47
2023-04-14T02:25:19.458Z,1.50
2023-04-14T02:26:19.519Z,1.55
2023-04-14T02:27:19.556Z,1.54
2023-04-14T02:28:19.617Z,1.53
2023-04-14T02:29:19.669Z,1.47
2023-04-14T02:30:19.715Z,1.44
2023-04-14T02:31:19.878Z,1.50
2023-04-14T02:32:19.928Z,1.48
2023-04-14T02:33:19.865Z,1.54
2023-04-14T02:34:19.929Z,1.59
2023-04-14T02:35:19.966Z,1.47
2023-04-14T02:36:20.040Z,1.54
2023-04-14T02:37:20.080Z,1.42
2023-04-14T02:38:20.139Z,1.35
2023-04-14T02:39:20.172Z,1.28
2023-04-14T02:40:20.252Z,1.46
2023-04-14T02:41:20.287Z,1.41
2023-04-14T02:42:20.324Z,1.48
2023-04-14T02:43:20.383Z,1.49
2023-04-14T02:44:20.444Z,1.51
2023-04-14T02:45:20.490Z,1.34
2023-04-14T02:46:20.577Z,1.46
2023-04-14T02:47:20.604Z,1.46
2023-04-14T02:48:20.641Z,1.46
2023-04-14T02:49:20.680Z,1.50
2023-04-14T02:50:20.749Z,1.53
2023-04-14T02:51:20.795Z,1.57
2023-04-14T02:52:20.816Z,1.59
2023-04-14T02:53:20.856Z,1.49
2023-04-14T02:54:20.904Z,1.45
2023-04-14T02:55:20.978Z,1.59
2023-04-14T02:56:21.021Z,1.51
2023-04-14T02:57:21.080Z,1.43
2023-04-14T02:58:21.119Z,1.45
2023-04-14T02:59:21.178Z,1.49
2023-04-14T03:00:21.216Z,1.57
2023-04-14T03:01:21.287Z,1.54
2023-04-14T03:02:21.438Z,1.60
2023-04-14T03:03:21.432Z,1.56
2023-04-14T03:04:21.482Z,1.52
2023-04-14T03:05:21.482Z,1.50
2023-04-14T03:06:21.545Z,1.46
2023-04-14T03:07:21.583Z,1.54
2023-04-14T03:08:21.639Z,1.57
2023-04-14T03:09:21.692Z,1.57
2023-04-14T03:10:21.746Z,1.59
2023-04-14T03:11:21.785Z,1.57
2023-04-14T03:12:21.820Z,1.57
2023-04-14T03:13:21.885Z,1.69
2023-04-14T03:14:21.924Z,1.58
2023-04-14T03:15:21.982Z,1.60
2023-04-14T03:16:22.058Z,1.61
2023-04-14T03:17:22.119Z,1.61
2023-04-14T03:18:22.168Z,1.64
2023-04-14T03:19:22.188Z,1.62
2023-04-14T03:20:22.262Z,1.68
2023-04-14T03:21:22.282Z,1.60
2023-04-14T03:22:22.341Z,1.61
2023-04-14T03:23:22.395Z,1.54
2023-04-14T03:24:22.450Z,1.44
2023-04-14T03:25:22.494Z,1.48
2023-04-14T03:26:22.552Z,1.59
2023-04-14T03:27:22.588Z,1.56
2023-04-14T03:28:22.653Z,1.50
2023-04-14T03:29:22.695Z,1.52
2023-04-14T03:30:22.751Z,1.45
2023-04-14T03:31:22.853Z,1.49
2023-04-14T03:32:22.860Z,1.39
2023-04-14T03:33:22.905Z,1.38
2023-04-14T03:34:22.934Z,1.52
2023-04-14T03:35:22.997Z,1.46
2023-04-14T03:36:23.054Z,1.55
2023-04-14T03:37:23.101Z,1.57
2023-04-14T03:38:23.149Z,1.59
2023-04-14T03:39:23.219Z,1.55
2023-04-14T03:40:23.274Z,1.51
2023-04-14T03:41:23.322Z,1.52
2023-04-14T03:42:23.365Z,1.59
2023-04-14T03:43:23.425Z,1.55
2023-04-14T03:44:23.455Z,1.55
2023-04-14T03:45:23.530Z,1.51
2023-04-14T03:46:23.658Z,1.40
2023-04-14T03:47:23.692Z,1.49
2023-04-14T03:48:23.672Z,1.29
2023-04-14T03:49:23.741Z,1.30
2023-04-14T03:50:23.806Z,1.27
2023-04-14T03:51:23.853Z,1.40
2023-04-14T03:52:23.882Z,1.43
2023-04-14T03:53:23.967Z,1.36
2023-04-14T03:54:23.993Z,1.26
2023-04-14T03:55:24.057Z,1.38
2023-04-14T03:56:24.089Z,1.36
2023-04-14T03:57:24.156Z,1.31
2023-04-14T03:58:24.207Z,1.21
2023-04-14T03:59:24.258Z,1.21
2023-04-14T04:00:24.300Z,1.37
2023-04-14T04:01:24.372Z,1.34
2023-04-14T04:02:24.664Z,1.39
2023-04-14T04:03:24.769Z,1.35
2023-04-14T04:04:24.636Z,1.34
2023-04-14T04:05:24.577Z,1.30
2023-04-14T04:06:24.638Z,1.42
2023-04-14T04:07:24.705Z,1.33
2023-04-14T04:08:24.750Z,1.32
2023-04-14T04:09:24.844Z,1.30
2023-04-14T04:10:24.838Z,1.39
2023-04-14T04:11:24.893Z,1.39
2023-04-14T04:12:24.980Z,1.46
2023-04-14T04:13:25.031Z,1.44
2023-04-14T04:14:25.053Z,1.51
2023-04-14T04:15:25.124Z,1.40
2023-04-14T04:16:25.186Z,1.38
2023-04-14T04:17:25.278Z,1.46
2023-04-14T04:18:25.279Z,1.51
2023-04-14T04:19:25.353Z,1.46
2023-04-14T04:20:25.389Z,1.49
2023-04-14T04:21:25.437Z,1.45
2023-04-14T04:22:25.506Z,1.55
2023-04-14T04:23:25.559Z,1.56
2023-04-14T04:24:25.614Z,1.54
2023-04-14T04:25:25.656Z,1.53
2023-04-14T04:26:25.709Z,1.63
2023-04-14T04:27:28.240Z,1.57
2023-04-14T04:28:25.764Z,1.53
2023-04-14T04:29:25.745Z,1.62
2023-04-14T04:30:25.718Z,1.65
2023-04-14T04:31:25.751Z,1.70
2023-04-14T04:32:25.792Z,1.54
2023-04-14T04:33:25.703Z,1.57
2023-04-14T04:34:25.713Z,1.55
2023-04-14T04:35:25.698Z,1.49
2023-04-14T04:36:25.707Z,1.50
2023-04-14T04:37:25.683Z,1.64
2023-04-14T04:38:25.672Z,1.65
2023-04-14T04:39:25.656Z,1.62
2023-04-14T04:40:25.716Z,1.61
2023-04-14T04:41:25.659Z,1.56
2023-04-14T04:42:25.651Z,1.49
2023-04-14T04:43:25.646Z,1.59
2023-04-14T04:44:25.638Z,1.68
2023-04-14T04:45:25.627Z,1.55
2023-04-14T04:46:25.662Z,1.65
2023-04-14T04:47:25.666Z,1.62
2023-04-14T04:48:25.601Z,1.67
2023-04-14T04:49:25.610Z,1.51
2023-04-14T04:50:25.593Z,1.53
2023-04-14T04:51:25.569Z,1.60
2023-04-14T04:52:25.595Z,1.50
2023-04-14T04:53:25.588Z,1.49
2023-04-14T04:54:25.562Z,1.56
2023-04-14T04:55:25.571Z,1.64
2023-04-14T04:56:25.537Z,1.66
2023-04-14T04:57:25.562Z,1.68
2023-04-14T04:58:25.553Z,1.65
2023-04-14T04:59:25.539Z,1.65
2023-04-14T05:00:25.549Z,1.73
2023-04-14T05:01:25.563Z,1.70
2023-04-14T05:02:25.643Z,1.68
2023-04-14T05:03:25.557Z,1.74
2023-04-14T05:04:25.508Z,1.62
2023-04-14T05:05:25.533Z,1.75
2023-04-14T05:06:25.468Z,1.74
2023-04-14T05:07:25.474Z,1.70
2023-04-14T05:08:25.472Z,1.56
2023-04-14T05:09:25.451Z,1.62
2023-04-14T05:10:25.555Z,1.74
2023-04-14T05:11:25.597Z,1.76
2023-04-14T05:12:25.604Z,1.78
2023-04-14T05:13:25.656Z,1.74
2023-04-14T05:14:27.432Z,1.78
2023-04-14T05:15:25.790Z,1.78
2023-04-14T05:16:25.948Z,1.80
2023-04-14T05:17:25.925Z,1.92
2023-04-14T05:18:25.926Z,1.84
2023-04-14T05:19:25.974Z,1.79
2023-04-14T05:20:26.042Z,1.85
2023-04-14T05:21:26.073Z,1.88
2023-04-14T05:22:26.131Z,1.91
2023-04-14T05:23:26.201Z,1.88
2023-04-14T05:24:26.251Z,2.04
2023-04-14T05:25:26.291Z,1.94
2023-04-14T05:26:51.213Z,1.88
2023-04-14T05:27:27.439Z,1.88
2023-04-14T05:28:26.676Z,1.90
2023-04-14T05:29:26.351Z,1.93
2023-04-14T05:30:26.326Z,1.95
2023-04-14T05:31:26.345Z,1.72
2023-04-14T05:32:28.862Z,1.89
2023-04-14T05:33:26.702Z,2.19
2023-04-14T05:34:26.302Z,2.21
2023-04-14T05:35:26.277Z,2.19
2023-04-14T05:36:26.300Z,2.84
2023-04-14T05:37:26.264Z,3.28
2023-04-14T05:38:26.267Z,3.21
2023-04-14T05:39:26.276Z,3.27
2023-04-14T05:40:26.304Z,3.52
2023-04-14T05:41:26.252Z,3.74
2023-04-14T05:42:26.236Z,4.52
2023-04-14T05:43:26.240Z,4.28
2023-04-14T05:44:26.273Z,5.02
2023-04-14T05:45:26.251Z,5.81
2023-04-14T05:46:26.297Z,6.41
2023-04-14T05:47:26.253Z,8.88
2023-04-14T05:48:26.214Z,11.12
2023-04-14T05:49:26.291Z,14.37
2023-04-14T05:50:26.214Z,17.22
2023-04-14T05:51:26.200Z,17.39
2023-04-14T05:52:26.194Z,34.31
2023-04-14T05:53:26.178Z,38.90
2023-04-14T05:54:26.177Z,22.88
2023-04-14T05:55:26.177Z,17.83
2023-04-14T05:56:26.171Z,16.58
2023-04-14T05:57:26.170Z,17.05
2023-04-14T05:58:26.174Z,13.42
2023-04-14T05:59:26.143Z,14.69
2023-04-14T06:00:26.123Z,13.04
2023-04-14T06:01:26.157Z,12.69
2023-04-14T06:02:26.236Z,10.70
2023-04-14T06:03:26.382Z,10.98
2023-04-14T06:04:26.125Z,13.09
2023-04-14T06:05:26.169Z,13.06
2023-04-14T06:06:26.096Z,13.32
2023-04-14T06:07:26.098Z,14.04
2023-04-14T06:08:26.095Z,12.78
2023-04-14T06:09:26.071Z,13.31
2023-04-14T06:10:26.077Z,13.64
2023-04-14T06:11:26.063Z,12.29
2023-04-14T06:12:26.056Z,11.56
2023-04-14T06:13:26.082Z,13.52
2023-04-14T06:14:26.091Z,13.71
2023-04-14T06:15:26.039Z,15.47
2023-04-14T06:16:26.065Z,16.91
2023-04-14T06:17:26.061Z,17.66
2023-04-14T06:18:26.208Z,18.04
2023-04-14T06:19:26.007Z,16.12
2023-04-14T06:20:25.998Z,15.12
2023-04-14T06:21:26.013Z,15.31
2023-04-14T06:22:25.974Z,16.15
2023-04-14T06:23:25.982Z,17.54
2023-04-14T06:24:25.987Z,15.95
2023-04-14T06:25:25.996Z,16.08
2023-04-14T06:26:25.948Z,16.38
2023-04-14T06:27:25.960Z,16.01
2023-04-14T06:28:25.924Z,15.79
2023-04-14T06:29:25.915Z,16.50
2023-04-14T06:30:25.924Z,17.64
2023-04-14T06:31:25.934Z,16.76
2023-04-14T06:32:26.004Z,16.27
2023-04-14T06:33:25.921Z,3.96
2023-04-14T06:34:25.888Z,2.05
2023-04-14T06:35:32.272Z,1.97
2023-04-14T06:36:26.878Z,3.57
2023-04-14T06:37:25.892Z,4.07
2023-04-14T06:38:25.877Z,4.52
2023-04-14T06:39:25.859Z,5.56
2023-04-14T06:40:25.873Z,7.98
2023-04-14T06:41:25.858Z,8.04
2023-04-14T06:42:25.859Z,8.23
2023-04-14T06:43:25.822Z,8.65
2023-04-14T06:44:25.870Z,9.26
2023-04-14T06:45:25.937Z,9.76
2023-04-14T06:46:26.093Z,9.72
2023-04-14T06:47:25.993Z,10.02
2023-04-14T06:48:25.974Z,10.31
2023-04-14T06:49:26.194Z,10.86
2023-04-14T06:50:25.983Z,10.60
2023-04-14T06:51:25.990Z,11.47
2023-04-14T06:52:26.011Z,12.46
2023-04-14T06:53:26.045Z,13.11
2023-04-14T06:54:25.991Z,13.39
2023-04-14T06:55:25.987Z,12.10
2023-04-14T06:56:26.039Z,11.56
2023-04-14T06:57:26.009Z,11.66
2023-04-14T06:58:26.059Z,10.80
2023-04-14T06:59:26.062Z,10.56
2023-04-14T07:00:26.050Z,11.61
2023-04-14T07:01:26.114Z,12.40
2023-04-14T07:02:26.179Z,13.42
2023-04-14T07:03:26.159Z,13.00
2023-04-14T07:04:26.247Z,12.96
2023-04-14T07:05:26.224Z,12.09
2023-04-14T07:06:26.203Z,11.53
2023-04-14T07:07:28.274Z,11.57
2023-04-14T07:08:26.232Z,11.93
2023-04-14T07:09:26.311Z,11.58
2023-04-14T07:10:26.235Z,10.46
2023-04-14T07:11:26.328Z,10.35
2023-04-14T07:12:26.323Z,7.52
2023-04-14T07:13:26.348Z,5.96
2023-04-14T07:14:26.710Z,6.08
2023-04-14T07:15:26.342Z,5.13
2023-04-14T07:16:26.439Z,4.72
2023-04-14T07:17:26.430Z,4.53
2023-04-14T07:18:26.339Z,4.36
2023-04-14T07:19:26.720Z,3.77
2023-04-14T07:20:26.420Z,3.62
2023-04-14T07:21:26.376Z,3.45
2023-04-14T07:22:26.440Z,3.27
2023-04-14T07:23:26.388Z,2.95
2023-04-14T07:24:26.721Z,3.02
2023-04-14T07:25:26.440Z,2.96
2023-04-14T07:26:26.482Z,3.01
2023-04-14T07:27:26.516Z,3.14
2023-04-14T07:28:26.504Z,3.37
2023-04-14T07:29:26.719Z,3.84
2023-04-14T07:30:26.606Z,7.12
2023-04-14T07:31:26.589Z,8.65
2023-04-14T07:32:26.600Z,8.15
2023-04-14T07:33:26.595Z,6.80
2023-04-14T07:34:26.600Z,6.62
2023-04-14T07:35:26.604Z,7.53
2023-04-14T07:36:26.596Z,7.89
2023-04-14T07:37:26.605Z,7.42
2023-04-14T07:38:26.588Z,7.53
2023-04-14T07:39:26.742Z,8.25
2023-04-14T07:40:26.696Z,8.52
2023-04-14T07:41:26.680Z,8.77
2023-04-14T07:42:26.697Z,8.59
2023-04-14T07:43:26.728Z,8.98
2023-04-14T07:44:26.850Z,9.29
2023-04-14T07:45:26.782Z,9.89
2023-04-14T07:46:26.894Z,9.62
2023-04-14T07:47:26.858Z,10.15
2023-04-14T07:48:26.850Z,10.62
2023-04-14T07:49:26.884Z,11.37
2023-04-14T07:50:27.032Z,12.19
2023-04-14T07:51:26.901Z,12.92
2023-04-14T07:52:26.912Z,12.75
2023-04-14T07:53:27.008Z,12.60
2023-04-14T07:54:27.027Z,11.40
2023-04-14T07:55:27.660Z,10.80
2023-04-14T07:56:27.230Z,11.22
2023-04-14T07:57:27.178Z,11.01
2023-04-14T07:58:29.252Z,10.78
2023-04-14T07:59:27.364Z,10.68
2023-04-14T08:00:27.419Z,11.00
2023-04-14T08:01:27.477Z,11.74
2023-04-14T08:02:27.770Z,12.14
2023-04-14T08:03:27.726Z,12.46
2023-04-14T08:04:27.678Z,13.23
2023-04-14T08:05:27.811Z,13.47
2023-04-14T08:06:27.812Z,12.73
2023-04-14T08:07:27.849Z,12.59
2023-04-14T08:08:27.933Z,11.75
2023-04-14T08:09:27.962Z,12.01
2023-04-14T08:10:28.027Z,12.62
2023-04-14T08:11:28.107Z,12.49
2023-04-14T08:12:28.134Z,12.91
2023-04-14T08:13:28.209Z,13.22
2023-04-14T08:14:28.244Z,14.22
2023-04-14T08:15:28.306Z,15.07
2023-04-14T08:16:28.412Z,13.37
2023-04-14T08:17:28.470Z,16.27
2023-04-14T08:18:28.473Z,17.86
2023-04-14T08:19:28.602Z,17.12
2023-04-14T08:20:28.596Z,16.33
2023-04-14T08:21:28.765Z,15.05
2023-04-14T08:22:28.698Z,13.17
2023-04-14T08:23:28.778Z,13.57
2023-04-14T08:24:28.833Z,13.52
2023-04-14T08:25:28.879Z,12.13
2023-04-14T08:26:28.971Z,14.66
2023-04-14T08:27:29.028Z,16.54
2023-04-14T08:28:29.079Z,16.28
2023-04-14T08:29:29.133Z,18.73
2023-04-14T08:30:29.169Z,20.60
2023-04-14T08:31:29.268Z,20.12
2023-04-14T08:32:29.295Z,19.27
2023-04-14T08:33:29.399Z,17.85
2023-04-14T08:34:29.404Z,16.00
2023-04-14T08:35:35.344Z,20.20
2023-04-14T08:36:30.458Z,20.31
2023-04-14T08:37:29.444Z,20.82
2023-04-14T08:38:29.564Z,21.87
2023-04-14T08:39:29.439Z,22.72
2023-04-14T08:40:29.435Z,25.24
2023-04-14T08:41:29.452Z,26.48
2023-04-14T08:42:29.443Z,26.85
2023-04-14T08:43:29.407Z,27.19
2023-04-14T08:44:29.404Z,26.82
2023-04-14T08:45:29.446Z,25.86
2023-04-14T08:46:29.498Z,24.50
2023-04-14T08:47:29.499Z,23.82
2023-04-14T08:48:29.503Z,23.94
2023-04-14T08:49:29.532Z,25.51
2023-04-14T08:50:29.838Z,25.84
2023-04-14T08:51:29.617Z,26.54
2023-04-14T08:52:29.653Z,25.84
2023-04-14T08:53:29.667Z,25.83
2023-04-14T08:54:29.699Z,25.12
2023-04-14T08:55:29.764Z,24.30
2023-04-14T08:56:30.280Z,23.83
2023-04-14T08:57:29.784Z,24.54
2023-04-14T08:58:29.839Z,23.89
2023-04-14T08:59:29.852Z,23.76
2023-04-14T09:00:29.884Z,29.06
2023-04-14T09:01:29.994Z,37.25
2023-04-14T09:02:30.053Z,29.19
2023-04-14T09:03:30.047Z,27.43
2023-04-14T09:04:30.007Z,26.51
2023-04-14T09:05:30.002Z,24.14
2023-04-14T09:06:30.011Z,22.28
2023-04-14T09:07:30.399Z,22.18
2023-04-14T09:08:30.068Z,22.34
2023-04-14T09:09:30.078Z,22.49
2023-04-14T09:10:30.280Z,24.24
2023-04-14T09:11:30.284Z,24.22
2023-04-14T09:12:30.199Z,21.64
2023-04-14T09:13:30.195Z,22.42
2023-04-14T09:14:30.207Z,20.87
2023-04-14T09:15:30.227Z,20.02
2023-04-14T09:16:30.823Z,21.40
2023-04-14T09:17:30.314Z,21.28
2023-04-14T09:18:30.343Z,20.69
2023-04-14T09:19:30.308Z,22.50
2023-04-14T09:20:38.813Z,24.07
2023-04-14T09:21:52.623Z,24.10
2023-04-14T09:22:31.324Z,24.12
2023-04-14T09:23:30.331Z,24.50
2023-04-14T09:24:32.597Z,26.45
2023-04-14T09:25:30.324Z,25.33
2023-04-14T09:26:30.331Z,22.56
2023-04-14T09:27:30.349Z,17.25
2023-04-14T09:28:30.404Z,14.66
2023-04-14T09:29:30.390Z,14.77
2023-04-14T09:30:30.786Z,15.03
2023-04-14T09:31:30.456Z,12.80
2023-04-14T09:32:30.807Z,12.43
2023-04-14T09:33:30.497Z,13.52
2023-04-14T09:34:30.571Z,15.19
2023-04-14T09:35:30.569Z,14.70
2023-04-14T09:36:30.563Z,14.42
2023-04-14T09:37:30.591Z,14.03
2023-04-14T09:38:30.629Z,14.01
2023-04-14T09:39:30.615Z,13.97
2023-04-14T09:40:30.776Z,13.77
2023-04-14T09:41:30.663Z,12.94
2023-04-14T09:42:30.678Z,12.15
2023-04-14T09:43:30.678Z,11.49
2023-04-14T09:44:30.704Z,11.37
2023-04-14T09:45:30.736Z,10.03
2023-04-14T09:46:30.751Z,10.15
2023-04-14T09:47:30.772Z,10.53
2023-04-14T09:48:30.840Z,9.86
2023-04-14T09:49:30.793Z,10.05
2023-04-14T09:50:30.823Z,10.70
2023-04-14T09:51:30.842Z,10.75
2023-04-14T09:52:31.322Z,11.86
2023-04-14T09:53:30.875Z,9.35
2023-04-14T09:54:30.876Z,8.21
2023-04-14T09:55:30.912Z,8.20
2023-04-14T09:56:30.938Z,6.91
2023-04-14T09:57:30.955Z,7.18
2023-04-14T09:58:31.169Z,8.42
2023-04-14T09:59:30.987Z,9.36
2023-04-14T10:00:31.270Z,9.80
2023-04-14T10:01:31.072Z,9.98
2023-04-14T10:02:31.169Z,8.93
2023-04-14T10:03:31.133Z,8.37
2023-04-14T10:04:31.146Z,7.72
2023-04-14T10:05:33.984Z,8.17
2023-04-14T10:06:31.097Z,8.08
2023-04-14T10:07:31.110Z,8.43
2023-04-14T10:08:31.101Z,8.47
2023-04-14T10:09:31.083Z,6.78
2023-04-14T10:10:31.116Z,6.64
2023-04-14T10:11:31.053Z,5.78
2023-04-14T10:12:31.081Z,6.37
2023-04-14T10:13:31.067Z,5.79
2023-04-14T10:14:31.053Z,5.59
2023-04-14T10:15:31.109Z,7.20
2023-04-14T10:16:31.051Z,7.20
2023-04-14T10:17:33.375Z,5.59
2023-04-14T10:18:31.026Z,5.60
2023-04-14T10:19:31.024Z,5.76
2023-04-14T10:20:31.338Z,5.76
2023-04-14T10:21:31.047Z,5.05
2023-04-14T10:22:31.383Z,5.47
2023-04-14T10:23:30.980Z,5.35
2023-04-14T10:24:31.030Z,4.91
2023-04-14T10:25:31.014Z,5.17
2023-04-14T10:26:31.002Z,1.98
2023-04-14T10:27:30.967Z,1.37
2023-04-14T10:28:33.015Z,1.02
2023-04-14T10:29:31.064Z,1.02
2023-04-14T10:30:30.966Z,1.04
2023-04-14T10:31:31.002Z,1.13
2023-04-14T10:32:31.037Z,1.50
2023-04-14T10:33:30.937Z,2.73
2023-04-14T10:34:31.789Z,2.82
2023-04-14T10:35:30.936Z,2.40
2023-04-14T10:36:30.910Z,1.93
2023-04-14T10:37:31.029Z,2.06
2023-04-14T10:38:30.881Z,1.66
2023-04-14T10:39:30.913Z,1.46
2023-04-14T10:40:30.886Z,1.23
2023-04-14T10:41:30.879Z,1.27
2023-04-14T10:42:30.870Z,1.27
2023-04-14T10:43:30.869Z,1.09
2023-04-14T10:44:30.851Z,0.97
2023-04-14T10:45:30.868Z,0.79
2023-04-14T10:46:30.918Z,0.77
2023-04-14T10:47:30.888Z,1.15
2023-04-14T10:48:30.836Z,1.26
2023-04-14T10:49:30.825Z,1.77
2023-04-14T10:50:30.813Z,1.56
2023-04-14T10:51:30.794Z,1.12
2023-04-14T10:52:30.795Z,1.58
2023-04-14T10:53:30.787Z,1.22
2023-04-14T10:54:30.784Z,0.82
2023-04-14T10:55:31.257Z,0.61
2023-04-14T10:56:30.764Z,0.50
2023-04-14T10:57:30.821Z,0.53
2023-04-14T10:58:30.753Z,0.77
2023-04-14T10:59:30.738Z,0.65
2023-04-14T11:00:30.744Z,0.53
2023-04-14T11:01:31.073Z,0.69
2023-04-14T11:02:31.459Z,0.65
2023-04-14T11:03:31.106Z,0.81
2023-04-14T11:04:31.120Z,0.84
2023-04-14T11:05:31.038Z,0.71
2023-04-14T11:06:31.104Z,0.69
2023-04-14T11:07:31.175Z,0.86
2023-04-14T11:08:31.239Z,0.92
2023-04-14T11:09:31.300Z,1.14
2023-04-14T11:10:31.357Z,0.87
2023-04-14T11:11:31.402Z,0.88
2023-04-14T11:12:31.826Z,0.71
2023-04-14T11:13:31.563Z,0.88
2023-04-14T11:14:31.609Z,0.74
2023-04-14T11:15:31.631Z,0.43
2023-04-14T11:16:31.808Z,0.39
2023-04-14T11:17:31.855Z,0.44
2023-04-14T11:18:31.761Z,0.53
2023-04-14T11:19:31.761Z,0.59
2023-04-14T11:20:31.734Z,0.65
2023-04-14T11:21:31.817Z,0.65
2023-04-14T11:22:31.872Z,0.81
2023-04-14T11:23:32.299Z,0.99
2023-04-14T11:24:32.363Z,1.09
2023-04-14T11:25:32.408Z,1.20
2023-04-14T11:26:31.813Z,1.40
2023-04-14T11:27:31.830Z,1.65
2023-04-14T11:28:31.831Z,2.06
2023-04-14T11:29:31.873Z,2.25
2023-04-14T11:30:31.853Z,2.08
2023-04-14T11:31:31.871Z,2.02
2023-04-14T11:32:34.804Z,1.89
2023-04-14T11:33:31.862Z,1.80
2023-04-14T11:34:31.832Z,1.94
2023-04-14T11:35:31.895Z,2.09
2023-04-14T11:36:31.817Z,2.21
2023-04-14T11:37:32.302Z,2.25
2023-04-14T11:38:38.380Z,2.38
2023-04-14T11:39:32.333Z,2.26
2023-04-14T11:40:31.874Z,2.28
2023-04-14T11:41:31.896Z,2.46
2023-04-14T11:42:31.764Z,2.74
2023-04-14T11:43:31.775Z,3.13
2023-04-14T11:44:31.814Z,3.15
2023-04-14T11:45:31.763Z,3.39
2023-04-14T11:46:31.925Z,3.53
2023-04-14T11:47:31.841Z,3.48
2023-04-14T11:48:31.747Z,3.99
2023-04-14T11:49:31.757Z,3.75
2023-04-14T11:50:32.425Z,3.91
2023-04-14T11:51:32.880Z,3.92
2023-04-14T11:52:32.039Z,4.03
2023-04-14T11:53:32.114Z,4.27
2023-04-14T11:54:33.374Z,4.61
2023-04-14T11:55:32.121Z,5.50
2023-04-14T11:56:32.185Z,5.57
2023-04-14T11:57:32.293Z,5.78
2023-04-14T11:58:32.292Z,5.43
2023-04-14T11:59:32.829Z,5.45
2023-04-14T12:00:32.842Z,5.53
2023-04-14T12:01:32.283Z,5.61
2023-04-14T12:02:35.136Z,5.86
2023-04-14T12:03:32.444Z,6.25
2023-04-14T12:04:32.520Z,5.47
2023-04-14T12:05:32.366Z,5.47
2023-04-14T12:06:32.839Z,5.57
2023-04-14T12:07:32.365Z,5.46
2023-04-14T12:08:34.416Z,5.54
2023-04-14T12:09:33.332Z,5.57
2023-04-14T12:10:33.338Z,5.63
2023-04-14T12:11:32.525Z,5.59
2023-04-14T12:12:33.336Z,5.39
2023-04-14T12:13:32.587Z,5.40
2023-04-14T12:14:32.582Z,4.41
2023-04-14T12:15:32.621Z,4.54
2023-04-14T12:16:32.739Z,4.50
2023-04-14T12:17:32.644Z,6.20
2023-04-14T12:18:32.557Z,7.54
2023-04-14T12:19:32.567Z,7.72
2023-04-14T12:20:32.526Z,4.78
2023-04-14T12:21:32.527Z,4.19
2023-04-14T12:22:32.557Z,7.08
2023-04-14T12:23:32.529Z,6.36
2023-04-14T12:24:32.518Z,6.61
2023-04-14T12:25:32.502Z,6.92
2023-04-14T12:26:32.588Z,7.01
2023-04-14T12:27:32.523Z,7.08
2023-04-14T12:28:32.479Z,6.95
2023-04-14T12:29:32.481Z,6.70
2023-04-14T12:30:32.486Z,7.17
2023-04-14T12:31:32.659Z,7.88
2023-04-14T12:32:32.500Z,7.44
2023-04-14T12:33:32.460Z,8.38
2023-04-14T12:34:32.465Z,8.83
2023-04-14T12:35:32.472Z,9.78
2023-04-14T12:36:45.449Z,10.40
2023-04-14T12:37:33.455Z,10.43
2023-04-14T12:38:32.423Z,10.55
2023-04-14T12:39:32.396Z,10.80
2023-04-14T12:40:32.401Z,11.26
2023-04-14T12:41:32.390Z,11.88
2023-04-14T12:42:32.384Z,12.47
2023-04-14T12:43:32.390Z,12.13
2023-04-14T12:44:32.354Z,11.94
2023-04-14T12:45:32.396Z,11.79
2023-04-14T12:46:32.480Z,11.83
2023-04-14T12:47:32.574Z,11.95
2023-04-14T12:48:32.612Z,12.24
2023-04-14T12:49:32.654Z,12.39
2023-04-14T12:50:32.703Z,11.46
2023-04-14T12:51:32.756Z,10.47
2023-04-14T12:52:32.854Z,10.08
2023-04-14T12:53:32.882Z,9.60
2023-04-14T12:54:32.944Z,9.15
2023-04-14T12:55:33.037Z,8.68
2023-04-14T12:56:33.063Z,8.65
2023-04-14T12:57:33.118Z,8.86
2023-04-14T12:58:33.184Z,8.42
2023-04-14T12:59:33.260Z,7.60
2023-04-14T13:00:33.330Z,7.04
2023-04-14T13:01:33.369Z,7.20
2023-04-14T13:02:33.543Z,8.61
2023-04-14T13:03:33.668Z,9.16
2023-04-14T13:04:33.587Z,9.16
2023-04-14T13:05:33.570Z,9.55
2023-04-14T13:06:33.649Z,9.52
2023-04-14T13:07:33.681Z,8.99
2023-04-14T13:08:33.745Z,9.10
2023-04-14T13:09:33.821Z,8.03
2023-04-14T13:10:33.854Z,8.50
2023-04-14T13:11:33.927Z,8.11
2023-04-14T13:12:33.960Z,6.36